createdAt,value
2023-03-23T15:58:52.323Z,3.60
2023-03-23T16:01:23.878Z,3.03
2023-03-23T16:03:54.225Z,3.33
2023-03-23T16:06:25.510Z,3.78
2023-03-23T16:08:56.758Z,3.50
2023-03-23T16:11:27.672Z,3.53
2023-03-23T16:14:04.474Z,3.42
2023-03-23T16:20:28.788Z,4.15
2023-03-23T16:23:13.728Z,3.92
2023-03-23T16:25:50.315Z,3.65
2023-03-23T16:28:39.002Z,4.30
2023-03-23T16:31:23.424Z,4.35
2023-03-23T16:34:13.224Z,5.37
2023-03-23T16:36:50.272Z,5.12
2023-03-23T16:39:27.781Z,5.07
2023-03-23T16:42:08.761Z,4.40
2023-03-23T16:44:47.536Z,5.18
2023-03-23T16:47:23.116Z,5.28
2023-03-23T16:50:03.265Z,5.40
2023-03-23T16:52:46.216Z,4.28
2023-03-23T16:55:32.306Z,4.45
2023-03-23T16:58:16.774Z,4.70
2023-03-23T17:01:00.648Z,5.55
2023-03-23T17:06:11.079Z,4.93
2023-03-23T17:08:49.952Z,4.72
2023-03-23T17:11:28.642Z,6.20
2023-03-23T17:14:15.906Z,6.53
2023-03-23T17:16:59.740Z,7.00
2023-03-23T17:19:34.744Z,6.00
2023-03-23T17:22:08.810Z,5.68
2023-03-23T17:24:44.370Z,6.30
2023-03-23T17:27:24.179Z,5.85
2023-03-23T17:30:00.222Z,6.32
2023-03-23T17:32:36.072Z,7.40
2023-03-23T17:37:58.624Z,8.20
2023-03-23T17:40:30.887Z,7.28
2023-03-23T17:43:13.768Z,7.50
2023-03-23T17:45:58.307Z,7.43
2023-03-23T17:48:43.532Z,8.02
2023-03-23T17:51:17.565Z,7.85
2023-03-23T17:54:03.729Z,7.78
2023-03-23T17:56:42.095Z,7.85
2023-03-23T17:59:22.271Z,8.25
2023-03-23T18:02:10.182Z,8.88
2023-03-23T18:04:50.603Z,10.30
2023-03-23T18:07:31.032Z,13.38
2023-03-23T18:10:15.261Z,15.80
2023-03-23T18:12:58.300Z,16.27
2023-03-23T18:15:35.050Z,16.50
2023-03-23T18:18:15.951Z,16.00
2023-03-23T18:21:06.580Z,14.30
2023-03-23T18:23:53.202Z,12.93
2023-03-23T18:29:23.611Z,10.80
2023-03-23T18:32:04.987Z,11.98
2023-03-23T18:34:40.854Z,11.10
2023-03-23T18:37:20.774Z,9.80
2023-03-23T18:39:59.652Z,9.70
2023-03-23T18:42:40.386Z,11.02
2023-03-23T18:45:20.198Z,9.98
2023-03-23T18:51:01.379Z,9.20
2023-03-23T18:53:56.507Z,9.65
2023-03-23T18:56:35.830Z,10.93
2023-03-23T18:59:14.987Z,11.82
2023-03-23T19:01:53.875Z,11.15
2023-03-23T19:04:26.197Z,16.83
2023-03-23T19:07:07.422Z,15.18
2023-03-23T19:09:52.383Z,14.23
2023-03-23T19:12:36.403Z,12.50
2023-03-23T19:15:22.991Z,14.05
2023-03-23T19:18:01.569Z,12.68
2023-03-23T19:21:09.691Z,12.57
2023-03-23T19:23:34.785Z,14.75
2023-03-23T19:26:28.964Z,13.20
2023-03-23T19:31:53.286Z,13.10
2023-03-23T19:34:29.064Z,12.37
2023-03-23T19:37:11.346Z,12.23
2023-03-23T19:39:43.552Z,13.65
2023-03-23T19:42:25.688Z,11.30
2023-03-23T19:45:00.340Z,10.80
2023-03-23T19:47:34.758Z,10.50
2023-03-23T19:50:05.287Z,11.12
2023-03-23T19:52:47.345Z,12.40
2023-03-23T19:55:22.527Z,11.73
2023-03-23T19:58:05.107Z,13.32
2023-03-23T20:00:40.798Z,11.60
2023-03-23T20:03:17.946Z,13.50
2023-03-23T20:05:54.339Z,15.07
2023-03-23T20:11:07.700Z,11.57
2023-03-23T20:13:44.801Z,10.40
2023-03-23T20:16:25.202Z,11.38
2023-03-23T20:19:05.998Z,11.40
2023-03-23T20:21:40.937Z,10.77
2023-03-23T20:24:13.305Z,12.43
2023-03-23T20:26:51.380Z,11.60
2023-03-23T20:29:36.949Z,12.07
2023-03-23T20:32:15.267Z,12.32
2023-03-23T20:34:58.147Z,12.20
2023-03-23T20:37:36.282Z,11.73
2023-03-23T20:40:21.092Z,10.57
2023-03-23T20:42:56.819Z,11.50
2023-03-23T20:45:35.625Z,10.40
2023-03-23T20:48:15.465Z,11.82
2023-03-23T20:51:04.912Z,10.20
2023-03-23T20:53:43.098Z,9.25
2023-03-23T20:56:13.827Z,9.57
2023-03-23T20:58:45.869Z,11.63
2023-03-23T21:01:29.508Z,11.85
2023-03-23T21:04:05.729Z,10.20
2023-03-23T21:06:46.627Z,10.00
2023-03-23T21:09:21.092Z,10.80
2023-03-23T21:12:00.759Z,11.23
2023-03-23T21:14:33.167Z,11.43
2023-03-23T21:17:13.520Z,11.38
2023-03-23T21:19:56.695Z,11.23
2023-03-23T21:22:35.693Z,12.52
2023-03-23T21:25:11.051Z,11.85
2023-03-23T21:27:50.741Z,12.45
2023-03-23T21:30:28.562Z,11.90
2023-03-23T21:33:06.575Z,11.20
2023-03-23T21:35:50.324Z,11.65
2023-03-23T21:38:28.198Z,10.43
2023-03-23T21:41:05.595Z,11.52
2023-03-23T21:43:48.530Z,12.70
2023-03-23T21:46:19.624Z,12.73
2023-03-23T21:49:05.660Z,14.30
2023-03-23T21:51:42.719Z,10.90
2023-03-23T21:54:22.411Z,11.48
2023-03-23T21:56:58.863Z,10.82
2023-03-23T21:59:42.751Z,10.32
2023-03-23T22:02:25.915Z,11.57
2023-03-23T22:05:09.058Z,9.50
2023-03-23T22:07:40.638Z,10.85
2023-03-23T22:10:20.440Z,10.18
2023-03-23T22:12:57.968Z,10.23
2023-03-23T22:15:35.998Z,10.38
2023-03-23T22:18:23.433Z,10.82
2023-03-23T22:21:04.316Z,10.57
2023-03-23T22:26:24.084Z,10.60
2023-03-23T22:28:58.925Z,9.27
2023-03-23T22:31:38.200Z,9.27
2023-03-23T22:34:18.943Z,11.63
2023-03-23T22:36:59.838Z,10.80
2023-03-23T22:39:36.084Z,9.90
2023-03-23T22:42:15.638Z,12.37
2023-03-23T22:44:48.728Z,11.18
2023-03-23T22:47:28.431Z,10.60
2023-03-23T22:50:03.348Z,11.43
2023-03-23T22:52:50.206Z,9.45
2023-03-23T22:55:24.888Z,9.65
2023-03-23T22:58:07.224Z,10.15
2023-03-23T23:00:41.877Z,9.93
2023-03-23T23:03:25.063Z,10.05
2023-03-23T23:06:10.622Z,11.02
2023-03-23T23:08:58.562Z,10.55
2023-03-23T23:11:38.877Z,11.23
2023-03-23T23:14:20.801Z,10.00
2023-03-23T23:16:58.003Z,10.55
2023-03-23T23:19:39.060Z,10.30
2023-03-23T23:22:19.380Z,9.50
2023-03-23T23:25:05.647Z,10.20
2023-03-23T23:27:41.165Z,9.57
2023-03-23T23:30:26.485Z,9.45
2023-03-23T23:33:07.177Z,10.18
2023-03-23T23:35:59.423Z,9.80
2023-03-23T23:38:36.276Z,10.15
2023-03-23T23:41:18.158Z,9.13
2023-03-23T23:44:04.553Z,10.65
2023-03-23T23:46:45.797Z,10.25
2023-03-23T23:49:26.166Z,10.60
2023-03-23T23:52:09.181Z,10.27
2023-03-23T23:54:54.226Z,9.25
2023-03-23T23:57:30.405Z,9.25
